createdAt,value
2018-09-25T00:00:14.397Z,7.20
2018-09-25T00:02:48.727Z,7.20
2018-09-25T00:05:23.133Z,7.40
2018-09-25T00:07:58.391Z,7.20
2018-09-25T00:10:32.929Z,7.10
2018-09-25T00:13:07.426Z,6.90
2018-09-25T00:15:41.890Z,6.70
2018-09-25T00:18:16.499Z,6.70
2018-09-25T00:20:50.924Z,6.60
2018-09-25T00:23:25.517Z,6.30
2018-09-25T00:25:59.941Z,6.50
2018-09-25T00:28:34.462Z,6.60
2018-09-25T00:31:08.776Z,6.60
2018-09-25T00:33:43.194Z,6.80
2018-09-25T00:36:17.549Z,6.80
2018-09-25T00:38:52.007Z,6.80
2018-09-25T00:41:26.570Z,6.50
2018-09-25T00:44:01.070Z,6.40
2018-09-25T00:46:35.467Z,6.40
2018-09-25T00:49:10.063Z,6.50
2018-09-25T00:51:45.191Z,6.50
2018-09-25T00:54:19.695Z,6.30
2018-09-25T00:56:54.327Z,6.10
2018-09-25T00:59:28.779Z,6.20
2018-09-25T01:02:03.376Z,6.20
2018-09-25T01:04:37.848Z,6.40
2018-09-25T01:07:12.450Z,6.60
2018-09-25T01:09:46.926Z,6.70
2018-09-25T01:12:21.319Z,6.60
2018-09-25T01:14:55.741Z,6.40
2018-09-25T01:17:30.413Z,6.40
2018-09-25T01:20:05.026Z,6.30
2018-09-25T01:22:39.445Z,6.10
2018-09-25T01:25:13.922Z,6.40
2018-09-25T01:27:48.389Z,6.50
2018-09-25T01:30:22.927Z,6.40
2018-09-25T01:32:57.419Z,6.10
2018-09-25T01:35:31.809Z,5.70
2018-09-25T01:38:06.402Z,5.90
2018-09-25T01:40:40.796Z,5.80
2018-09-25T01:43:15.223Z,5.90
2018-09-25T01:45:49.779Z,5.90
2018-09-25T01:48:24.134Z,6.00
2018-09-25T01:50:58.697Z,5.90
2018-09-25T01:53:33.246Z,6.20
2018-09-25T01:56:07.733Z,6.20
2018-09-25T01:58:42.255Z,6.00
2018-09-25T02:01:16.915Z,5.80
2018-09-25T02:03:51.514Z,6.10
2018-09-25T02:06:25.922Z,5.80
2018-09-25T02:09:00.978Z,5.80
2018-09-25T02:11:37.269Z,5.90
2018-09-25T02:14:11.939Z,6.00
2018-09-25T02:16:46.602Z,6.00
2018-09-25T02:19:21.070Z,5.90
2018-09-25T02:21:55.748Z,5.90
2018-09-25T02:24:30.291Z,5.80
2018-09-25T02:27:04.774Z,5.70
2018-09-25T02:29:39.274Z,5.70
2018-09-25T02:32:13.847Z,5.60
2018-09-25T02:34:48.411Z,5.50
2018-09-25T02:37:22.999Z,5.60
2018-09-25T02:39:57.476Z,5.90
2018-09-25T02:42:31.823Z,5.90
2018-09-25T02:45:06.314Z,5.90
2018-09-25T02:47:40.899Z,5.80
2018-09-25T02:50:15.322Z,5.50
2018-09-25T02:52:49.780Z,5.30
2018-09-25T02:55:24.190Z,5.40
2018-09-25T02:57:58.791Z,5.40
2018-09-25T03:00:33.227Z,5.50
2018-09-25T03:03:07.658Z,5.60
2018-09-25T03:05:42.080Z,5.80
2018-09-25T03:08:17.164Z,5.80
2018-09-25T03:10:51.516Z,5.50
2018-09-25T03:13:26.090Z,5.50
2018-09-25T03:16:00.415Z,5.60
2018-09-25T03:18:34.748Z,5.70
2018-09-25T03:21:09.240Z,5.60
2018-09-25T03:23:43.702Z,5.70
2018-09-25T03:26:18.146Z,5.70
2018-09-25T03:28:52.616Z,5.60
2018-09-25T03:31:26.987Z,5.50
2018-09-25T03:34:01.613Z,5.40
2018-09-25T03:36:36.026Z,5.40
2018-09-25T03:39:12.906Z,5.30
2018-09-25T03:41:47.787Z,5.90
2018-09-25T03:44:22.305Z,5.90
2018-09-25T03:46:56.836Z,5.50
2018-09-25T03:49:31.305Z,5.80
2018-09-25T03:52:05.745Z,5.80
2018-09-25T03:54:40.427Z,6.00
2018-09-25T03:57:14.995Z,6.00
2018-09-25T03:59:49.367Z,5.80
2018-09-25T04:02:23.791Z,5.70
2018-09-25T04:04:58.400Z,5.80
2018-09-25T04:07:33.255Z,6.20
2018-09-25T04:10:07.869Z,6.10
2018-09-25T04:12:42.443Z,6.20
2018-09-25T04:15:22.508Z,6.20
2018-09-25T04:18:13.103Z,6.20
2018-09-25T04:20:55.716Z,6.00
2018-09-25T04:23:30.157Z,5.90
2018-09-25T04:26:04.444Z,6.20
2018-09-25T04:28:38.849Z,5.90
2018-09-25T04:31:13.467Z,6.00
2018-09-25T04:33:48.051Z,6.00
2018-09-25T04:36:22.518Z,6.20
2018-09-25T04:38:57.095Z,6.10
2018-09-25T04:41:31.614Z,6.00
2018-09-25T04:44:06.080Z,6.30
2018-09-25T04:46:40.612Z,6.30
2018-09-25T04:49:15.317Z,6.50
2018-09-25T04:51:49.890Z,6.80
2018-09-25T04:54:24.448Z,6.60
2018-09-25T04:56:58.898Z,6.50
2018-09-25T04:59:33.740Z,6.50
2018-09-25T05:04:48.186Z,6.40
2018-09-25T05:07:22.743Z,6.50
2018-09-25T05:09:57.202Z,6.10
2018-09-25T05:12:31.735Z,6.20
2018-09-25T05:15:06.126Z,5.90
2018-09-25T05:17:40.555Z,6.20
2018-09-25T05:20:15.225Z,6.20
2018-09-25T05:22:49.649Z,6.30
2018-09-25T05:25:24.146Z,6.30
2018-09-25T05:27:58.739Z,6.40
2018-09-25T05:30:33.313Z,6.60
2018-09-25T05:33:07.926Z,6.60
2018-09-25T05:35:42.247Z,6.30
2018-09-25T05:38:16.743Z,6.60
2018-09-25T05:40:51.306Z,6.80
2018-09-25T05:43:25.765Z,6.60
2018-09-25T05:46:00.095Z,6.70
2018-09-25T05:48:34.631Z,6.60
2018-09-25T05:51:09.187Z,6.70
2018-09-25T05:53:43.607Z,6.90
2018-09-25T05:56:18.103Z,6.70
2018-09-25T05:58:52.519Z,6.80
2018-09-25T06:01:26.944Z,6.60
2018-09-25T06:04:01.451Z,6.80
2018-09-25T06:06:36.083Z,7.00
2018-09-25T06:09:12.871Z,7.10
2018-09-25T06:11:47.161Z,7.20
2018-09-25T06:14:21.599Z,7.30
2018-09-25T06:16:57.780Z,7.40
2018-09-25T06:19:34.116Z,7.40
2018-09-25T06:22:08.705Z,7.50
2018-09-25T06:24:43.129Z,7.80
2018-09-25T06:27:17.490Z,7.80
2018-09-25T06:29:52.067Z,8.00
2018-09-25T06:32:26.597Z,8.20
2018-09-25T06:35:01.057Z,8.20
2018-09-25T06:37:35.623Z,8.40
2018-09-25T06:40:10.184Z,8.50
2018-09-25T06:42:44.535Z,8.70
2018-09-25T06:45:19.025Z,8.80
2018-09-25T06:47:53.627Z,9.10
2018-09-25T06:50:28.098Z,9.30
2018-09-25T06:53:02.573Z,9.60
2018-09-25T06:55:37.615Z,9.80
2018-09-25T06:58:12.161Z,10.20
2018-09-25T07:00:46.688Z,10.60
2018-09-25T07:03:21.220Z,10.80
2018-09-25T07:05:55.851Z,11.10
2018-09-25T07:08:30.290Z,11.20
2018-09-25T07:11:04.631Z,11.30
2018-09-25T07:13:38.939Z,11.70
2018-09-25T07:16:13.407Z,12.00
2018-09-25T07:18:48.076Z,11.60
2018-09-25T07:21:22.677Z,11.90
2018-09-25T07:23:57.166Z,12.30
2018-09-25T07:26:31.611Z,12.00
2018-09-25T07:29:06.129Z,12.10
2018-09-25T07:31:40.520Z,11.90
2018-09-25T07:34:14.998Z,12.00
2018-09-25T07:36:49.486Z,12.30
2018-09-25T07:39:23.836Z,12.30
2018-09-25T07:41:58.327Z,12.60
2018-09-25T07:44:32.960Z,12.80
2018-09-25T07:47:07.376Z,13.00
2018-09-25T07:49:41.923Z,13.80
2018-09-25T07:52:16.456Z,13.90
2018-09-25T07:54:50.983Z,13.60
2018-09-25T07:57:25.466Z,13.70
2018-09-25T08:00:00.018Z,14.10
2018-09-25T08:02:35.023Z,14.20
2018-09-25T08:05:09.577Z,13.90
2018-09-25T08:07:44.016Z,14.60
2018-09-25T08:10:18.407Z,14.80
2018-09-25T08:12:53.022Z,14.60
2018-09-25T08:15:27.498Z,14.80
2018-09-25T08:18:01.979Z,14.90
2018-09-25T08:20:36.551Z,14.50
2018-09-25T08:23:11.146Z,14.60
2018-09-25T08:25:45.638Z,14.70
2018-09-25T08:28:20.260Z,14.60
2018-09-25T08:30:54.819Z,15.30
2018-09-25T08:33:29.275Z,15.70
2018-09-25T08:36:03.768Z,16.00
2018-09-25T08:38:38.333Z,15.50
2018-09-25T08:41:12.873Z,15.40
2018-09-25T08:43:47.384Z,15.40
2018-09-25T08:46:21.872Z,15.70
2018-09-25T08:48:56.367Z,15.10
2018-09-25T08:51:30.741Z,15.40
2018-09-25T08:54:05.139Z,15.70
2018-09-25T08:56:39.520Z,15.80
2018-09-25T08:59:13.979Z,15.60
2018-09-25T09:01:48.499Z,16.00
2018-09-25T09:04:22.924Z,16.10
2018-09-25T09:06:57.264Z,16.00
2018-09-25T09:09:31.712Z,16.20
2018-09-25T09:12:06.051Z,15.80
2018-09-25T09:14:40.518Z,16.20
2018-09-25T09:17:15.074Z,17.00
2018-09-25T09:19:49.765Z,16.60
2018-09-25T09:22:24.223Z,17.20
2018-09-25T09:24:58.877Z,17.10
2018-09-25T09:27:33.314Z,17.40
2018-09-25T09:30:07.688Z,17.70
2018-09-25T09:32:42.148Z,18.00
2018-09-25T09:35:17.082Z,17.60
2018-09-25T09:37:51.590Z,17.80
2018-09-25T09:40:26.181Z,18.00
2018-09-25T09:43:00.628Z,17.50
2018-09-25T09:45:35.015Z,17.50
2018-09-25T09:48:09.535Z,17.90
2018-09-25T09:50:43.957Z,17.50
2018-09-25T09:53:18.419Z,18.00
2018-09-25T09:55:53.023Z,17.50
2018-09-25T09:58:27.410Z,17.60
2018-09-25T10:01:01.874Z,17.10
2018-09-25T10:03:36.352Z,17.60
2018-09-25T10:06:10.758Z,17.90
2018-09-25T10:08:45.195Z,18.20
2018-09-25T10:11:19.688Z,18.80
2018-09-25T10:13:54.134Z,18.40
2018-09-25T10:16:28.519Z,19.10
2018-09-25T10:19:02.869Z,18.70
2018-09-25T10:21:37.393Z,18.80
2018-09-25T10:24:11.887Z,18.60
2018-09-25T10:26:46.234Z,18.40
2018-09-25T10:29:20.872Z,18.80
2018-09-25T10:31:55.307Z,18.60
2018-09-25T10:34:29.799Z,19.60
2018-09-25T10:37:04.267Z,19.20
2018-09-25T10:39:38.759Z,18.50
2018-09-25T10:42:13.455Z,19.20
2018-09-25T10:44:47.787Z,18.60
2018-09-25T10:47:22.391Z,18.10
2018-09-25T10:49:56.810Z,18.60
2018-09-25T10:52:31.251Z,19.70
2018-09-25T10:55:05.873Z,20.10
2018-09-25T10:57:40.320Z,19.70
2018-09-25T11:00:15.435Z,19.60
2018-09-25T11:02:50.120Z,20.00
2018-09-25T11:05:24.591Z,19.60
2018-09-25T11:07:59.059Z,20.00
2018-09-25T11:10:33.495Z,19.90
2018-09-25T11:13:08.329Z,19.00
2018-09-25T11:15:42.967Z,20.00
2018-09-25T11:18:17.523Z,20.30
2018-09-25T11:20:51.994Z,20.60
2018-09-25T11:23:26.510Z,20.60
2018-09-25T11:26:00.947Z,20.20
2018-09-25T11:28:35.533Z,20.90
2018-09-25T11:31:10.071Z,21.50
2018-09-25T11:33:44.659Z,21.70
2018-09-25T11:36:19.251Z,21.10
2018-09-25T11:38:54.592Z,20.20
2018-09-25T11:41:29.011Z,20.40
2018-09-25T11:44:03.330Z,19.90
2018-09-25T11:46:37.644Z,19.70
2018-09-25T11:49:12.319Z,18.90
2018-09-25T11:51:46.892Z,19.90
2018-09-25T11:54:21.308Z,21.00
2018-09-25T11:56:55.833Z,20.40
2018-09-25T11:59:30.302Z,20.60
2018-09-25T12:02:04.950Z,20.70
2018-09-25T12:04:39.636Z,20.80
2018-09-25T12:07:13.931Z,21.30
2018-09-25T12:09:48.350Z,20.50
2018-09-25T12:12:22.645Z,19.50
2018-09-25T12:14:57.207Z,20.40
2018-09-25T12:17:31.499Z,21.70
2018-09-25T12:20:06.067Z,21.30
2018-09-25T12:22:40.634Z,21.80
2018-09-25T12:25:15.119Z,21.40
2018-09-25T12:27:49.574Z,21.70
2018-09-25T12:30:24.127Z,21.60
2018-09-25T12:32:58.466Z,22.30
2018-09-25T12:35:32.954Z,22.20
2018-09-25T12:38:08.239Z,20.30
2018-09-25T12:40:42.697Z,20.60
2018-09-25T12:43:17.894Z,21.60
2018-09-25T12:45:52.856Z,21.70
2018-09-25T12:48:27.255Z,22.20
2018-09-25T12:51:01.777Z,21.90
2018-09-25T12:53:36.123Z,20.40
2018-09-25T12:56:10.567Z,20.60
2018-09-25T12:58:45.126Z,21.60
2018-09-25T13:01:19.510Z,21.30
2018-09-25T13:03:54.131Z,20.20
2018-09-25T13:06:28.566Z,19.20
2018-09-25T13:09:02.936Z,20.20
2018-09-25T13:11:37.326Z,19.20
2018-09-25T13:14:11.959Z,21.00
2018-09-25T13:16:46.316Z,20.20
2018-09-25T13:19:20.632Z,20.10
2018-09-25T13:21:55.351Z,19.60
2018-09-25T13:24:29.819Z,19.50
2018-09-25T13:27:04.216Z,20.20
2018-09-25T13:29:38.636Z,20.90
2018-09-25T13:32:13.428Z,20.80
2018-09-25T13:34:47.922Z,19.80
2018-09-25T13:37:22.287Z,19.80
2018-09-25T13:39:56.715Z,19.90
2018-09-25T13:42:31.103Z,19.60
2018-09-25T13:45:05.585Z,20.10
2018-09-25T13:47:39.894Z,20.30
2018-09-25T13:50:14.320Z,19.80
2018-09-25T13:52:48.712Z,19.30
2018-09-25T13:55:23.024Z,19.90
2018-09-25T13:57:57.563Z,20.20
2018-09-25T14:00:32.123Z,20.30
2018-09-25T14:03:06.485Z,20.10
2018-09-25T14:05:40.920Z,20.00
2018-09-25T14:08:15.223Z,20.10
2018-09-25T14:10:49.657Z,19.10
2018-09-25T14:13:23.910Z,19.10
2018-09-25T14:15:58.472Z,18.90
2018-09-25T14:18:32.822Z,18.50
2018-09-25T14:21:07.247Z,18.40
2018-09-25T14:23:41.751Z,19.30
2018-09-25T14:26:16.322Z,19.50
2018-09-25T14:28:50.911Z,19.00
2018-09-25T14:31:25.559Z,18.70
2018-09-25T14:33:59.879Z,18.90
2018-09-25T14:36:34.508Z,18.80
2018-09-25T14:39:09.043Z,19.20
2018-09-25T14:41:43.696Z,19.00
2018-09-25T14:44:18.321Z,18.60
2018-09-25T14:46:53.001Z,18.60
2018-09-25T14:49:27.618Z,18.60
2018-09-25T14:52:02.294Z,19.10
2018-09-25T14:54:37.224Z,19.30
2018-09-25T14:57:11.644Z,18.60
2018-09-25T14:59:46.088Z,18.30
2018-09-25T15:02:20.562Z,18.40
2018-09-25T15:04:55.734Z,18.10
2018-09-25T15:07:30.081Z,18.50
2018-09-25T15:10:04.704Z,18.60
2018-09-25T15:12:39.111Z,18.50
2018-09-25T15:15:13.609Z,17.70
2018-09-25T15:17:48.219Z,17.60
2018-09-25T15:20:22.811Z,17.50
2018-09-25T15:22:57.327Z,17.80
2018-09-25T15:25:32.451Z,18.00
2018-09-25T15:28:07.091Z,17.90
2018-09-25T15:30:41.642Z,17.50
2018-09-25T15:33:16.101Z,17.30
2018-09-25T15:35:50.523Z,17.30
2018-09-25T15:38:24.991Z,17.00
2018-09-25T15:40:59.548Z,16.90
2018-09-25T15:43:34.012Z,17.00
2018-09-25T15:46:08.411Z,17.40
2018-09-25T15:48:42.837Z,17.40
2018-09-25T15:51:17.465Z,17.10
2018-09-25T15:53:52.430Z,16.80
2018-09-25T15:56:26.738Z,17.00
2018-09-25T15:59:01.114Z,16.90
2018-09-25T16:01:36.195Z,16.80
2018-09-25T16:04:10.812Z,16.80
2018-09-25T16:06:46.236Z,16.70
2018-09-25T16:09:21.268Z,16.80
2018-09-25T16:11:55.816Z,16.90
2018-09-25T16:14:31.034Z,16.70
2018-09-25T16:17:06.504Z,16.60
2018-09-25T16:19:41.806Z,16.30
2018-09-25T16:22:16.667Z,15.90
2018-09-25T16:24:51.773Z,15.80
2018-09-25T16:27:26.357Z,15.50
2018-09-25T16:30:01.155Z,15.40
2018-09-25T16:32:36.183Z,15.30
2018-09-25T16:35:11.189Z,15.40
2018-09-25T16:37:45.854Z,15.30
2018-09-25T16:40:20.905Z,15.00
2018-09-25T16:42:55.440Z,14.80
2018-09-25T16:45:30.500Z,14.80
2018-09-25T16:48:04.975Z,14.90
2018-09-25T16:50:40.233Z,15.00
2018-09-25T16:53:14.960Z,14.90
2018-09-25T16:55:49.994Z,14.80
2018-09-25T16:58:24.679Z,14.80
2018-09-25T17:00:59.056Z,14.70
2018-09-25T17:03:33.364Z,14.80
2018-09-25T17:06:07.936Z,15.20
2018-09-25T17:08:42.419Z,15.20
2018-09-25T17:11:16.982Z,15.00
2018-09-25T17:13:51.906Z,14.70
2018-09-25T17:16:26.347Z,14.70
2018-09-25T17:19:01.598Z,14.60
2018-09-25T17:21:36.084Z,14.30
2018-09-25T17:24:10.507Z,14.30
2018-09-25T17:26:44.991Z,14.30
2018-09-25T17:29:20.194Z,14.30
2018-09-25T17:31:54.999Z,14.30
2018-09-25T17:34:29.732Z,14.10
2018-09-25T17:37:04.353Z,13.90
2018-09-25T17:39:38.810Z,13.80
2018-09-25T17:42:13.385Z,13.60
2018-09-25T17:44:47.895Z,13.60
2018-09-25T17:47:22.406Z,13.80
2018-09-25T17:49:56.691Z,13.80
2018-09-25T17:52:31.250Z,13.40
2018-09-25T17:55:07.225Z,13.30
2018-09-25T17:57:41.833Z,13.40
2018-09-25T18:00:16.203Z,13.20
2018-09-25T18:02:50.854Z,13.40
2018-09-25T18:05:25.738Z,13.30
2018-09-25T18:08:00.178Z,13.20
2018-09-25T18:10:34.726Z,13.30
2018-09-25T18:13:09.079Z,13.30
2018-09-25T18:15:43.543Z,13.30
2018-09-25T18:18:17.876Z,13.00
2018-09-25T18:20:52.227Z,13.00
2018-09-25T18:23:27.203Z,13.00
2018-09-25T18:26:01.763Z,13.00
2018-09-25T18:28:37.058Z,13.00
2018-09-25T18:31:12.235Z,12.80
2018-09-25T18:33:46.588Z,12.90
2018-09-25T18:36:21.452Z,12.60
2018-09-25T18:38:56.744Z,12.40
2018-09-25T18:41:31.233Z,12.40
2018-09-25T18:44:07.031Z,12.20
2018-09-25T18:46:41.916Z,12.50
2018-09-25T18:49:16.533Z,12.40
2018-09-25T18:51:51.597Z,12.60
2018-09-25T18:54:26.701Z,12.60
2018-09-25T18:57:02.199Z,12.60
2018-09-25T18:59:38.091Z,12.60
2018-09-25T19:02:13.519Z,13.30
2018-09-25T19:04:48.107Z,12.80
2018-09-25T19:07:23.307Z,12.40
2018-09-25T19:09:58.540Z,12.30
2018-09-25T19:12:34.010Z,12.30
2018-09-25T19:15:09.975Z,12.30
2018-09-25T19:17:44.769Z,12.40
2018-09-25T19:20:20.017Z,12.20
2018-09-25T19:22:55.557Z,12.40
2018-09-25T19:25:30.259Z,12.40
2018-09-25T19:28:05.518Z,12.10
2018-09-25T19:30:40.221Z,12.10
2018-09-25T19:33:22.337Z,12.00
2018-09-25T19:35:57.271Z,11.80
2018-09-25T19:38:31.839Z,11.90
2018-09-25T19:41:06.400Z,12.00
2018-09-25T19:43:40.966Z,11.90
2018-09-25T19:46:16.274Z,12.00
2018-09-25T19:48:52.145Z,11.60
2018-09-25T19:51:29.488Z,11.90
2018-09-25T19:54:06.706Z,11.80
2018-09-25T19:56:43.039Z,11.70
2018-09-25T19:59:19.589Z,11.80
2018-09-25T20:01:56.279Z,12.00
2018-09-25T20:04:33.086Z,11.70
2018-09-25T20:07:08.887Z,11.80
2018-09-25T20:09:43.707Z,11.70
2018-09-25T20:12:19.027Z,11.60
2018-09-25T20:14:54.132Z,11.60
2018-09-25T20:17:28.673Z,11.60
2018-09-25T20:20:03.295Z,11.50
2018-09-25T20:22:37.698Z,11.60
2018-09-25T20:25:13.036Z,11.60
2018-09-25T20:27:47.780Z,11.70
2018-09-25T20:30:22.101Z,11.60
2018-09-25T20:32:56.910Z,11.70
2018-09-25T20:35:31.476Z,11.70
2018-09-25T20:38:05.951Z,11.50
2018-09-25T20:40:40.608Z,11.50
2018-09-25T20:43:15.243Z,11.40
2018-09-25T20:45:49.683Z,11.50
2018-09-25T20:48:24.676Z,11.60
2018-09-25T20:50:59.082Z,11.60
2018-09-25T20:53:33.717Z,11.60
2018-09-25T20:56:08.219Z,11.30
2018-09-25T20:58:42.519Z,11.30
2018-09-25T21:01:16.984Z,11.10
2018-09-25T21:03:51.601Z,11.10
2018-09-25T21:06:26.187Z,11.20
2018-09-25T21:09:00.599Z,11.00
2018-09-25T21:11:35.042Z,11.00
2018-09-25T21:14:09.555Z,11.10
2018-09-25T21:16:43.992Z,11.00
2018-09-25T21:19:18.415Z,11.00
2018-09-25T21:21:52.886Z,10.90
2018-09-25T21:24:27.471Z,10.90
2018-09-25T21:27:01.914Z,11.10
2018-09-25T21:29:36.928Z,10.90
2018-09-25T21:32:11.463Z,10.90
2018-09-25T21:34:46.051Z,11.00
2018-09-25T21:37:20.647Z,10.90
2018-09-25T21:39:55.148Z,10.90
2018-09-25T21:42:29.574Z,10.90
2018-09-25T21:45:04.064Z,10.90
2018-09-25T21:47:38.598Z,10.80
2018-09-25T21:50:13.108Z,10.80
2018-09-25T21:52:47.562Z,10.60
2018-09-25T21:55:22.035Z,10.60
2018-09-25T21:57:56.633Z,10.70
2018-09-25T22:00:31.119Z,10.60
2018-09-25T22:03:05.532Z,10.60
2018-09-25T22:05:40.015Z,10.60
2018-09-25T22:08:14.344Z,10.40
2018-09-25T22:10:48.708Z,10.40
2018-09-25T22:13:23.290Z,10.20
2018-09-25T22:15:57.710Z,10.20
2018-09-25T22:18:32.079Z,10.50
2018-09-25T22:21:06.696Z,10.50
2018-09-25T22:23:41.010Z,10.40
2018-09-25T22:26:15.599Z,10.40
2018-09-25T22:28:50.143Z,10.10
2018-09-25T22:31:24.584Z,10.20
2018-09-25T22:33:59.047Z,10.20
2018-09-25T22:36:33.635Z,10.20
2018-09-25T22:39:08.262Z,10.10
2018-09-25T22:41:42.714Z,10.10
2018-09-25T22:44:17.214Z,10.20
2018-09-25T22:46:51.602Z,10.20
2018-09-25T22:49:26.018Z,10.20
2018-09-25T22:52:00.393Z,10.30
2018-09-25T22:54:34.869Z,10.20
2018-09-25T22:57:09.441Z,10.20
2018-09-25T22:59:43.830Z,10.10
2018-09-25T23:02:18.175Z,10.00
2018-09-25T23:04:52.590Z,10.00
2018-09-25T23:07:26.948Z,10.10
2018-09-25T23:10:01.321Z,10.20
2018-09-25T23:12:35.753Z,10.10
2018-09-25T23:15:10.407Z,10.10
2018-09-25T23:17:44.716Z,9.80
2018-09-25T23:20:19.331Z,10.00
2018-09-25T23:22:53.598Z,10.00
2018-09-25T23:25:27.924Z,9.90
2018-09-25T23:28:02.280Z,9.90
2018-09-25T23:30:36.823Z,9.90
2018-09-25T23:33:11.314Z,9.60
2018-09-25T23:35:45.858Z,9.60
2018-09-25T23:38:20.264Z,9.80
2018-09-25T23:40:53.583Z,9.60
2018-09-25T23:43:27.130Z,9.50
2018-09-25T23:46:02.275Z,9.50
2018-09-25T23:48:36.711Z,9.10
2018-09-25T23:51:10.192Z,9.20
2018-09-25T23:53:47.447Z,9.30
2018-09-25T23:57:20.635Z,9.40
